Time;durP1;ratioP1;P1;durP2;ratioP2;P2;SDS_P1;SDS_P2;PMS_P1;PMS_P2;Temp;Humidity;BMP_temperature;BMP_pressure;BME280_temperature;BME280_humidity;BME280_pressure;Samples;Min_cycle;Max_cycle;Signal;HPM_P1;HPM_P2
2022/09/27 00:01:35;;;;;;;2.20;1.70;;;10.90;99.90;;;;;;5051960;28;20037;-45
2022/09/27 00:04:01;;;;;;;2.08;1.80;;;10.90;99.90;;;;;;5051524;28;20032;-44
2022/09/27 00:06:29;;;;;;;2.83;1.70;;;10.90;99.90;;;;;;5047798;28;20042;-44
2022/09/27 00:08:56;;;;;;;2.08;1.70;;;10.80;99.90;;;;;;5040124;28;20041;-44
2022/09/27 00:11:26;;;;;;;4.53;1.95;;;10.90;99.90;;;;;;5051393;28;20491;-45
2022/09/27 00:13:54;;;;;;;4.43;1.63;;;10.80;99.90;;;;;;5051274;28;20029;-45
2022/09/27 00:16:20;;;;;;;2.95;1.42;;;10.90;99.90;;;;;;5049151;28;20025;-45
2022/09/27 00:18:46;;;;;;;4.05;1.45;;;10.80;99.90;;;;;;5043283;28;20025;-44
2022/09/27 00:21:12;;;;;;;1.85;1.42;;;10.90;99.90;;;;;;5050335;28;20325;-47
2022/09/27 00:23:38;;;;;;;2.67;1.83;;;10.90;99.90;;;;;;5051085;28;20071;-44
2022/09/27 00:26:05;;;;;;;1.83;1.25;;;10.90;99.90;;;;;;5051707;28;20029;-47
2022/09/27 00:28:31;;;;;;;2.05;1.40;;;10.90;99.90;;;;;;5051444;28;20021;-44
2022/09/27 00:30:58;;;;;;;3.92;1.85;;;10.80;99.90;;;;;;5051537;28;20031;-44
2022/09/27 00:33:23;;;;;;;2.47;1.60;;;10.80;99.90;;;;;;5049881;28;20112;-44
2022/09/27 00:35:49;;;;;;;6.90;1.55;;;10.80;99.90;;;;;;5051450;28;20537;-44
2022/09/27 00:38:14;;;;;;;2.65;1.35;;;10.80;99.90;;;;;;5051170;28;20091;-44
2022/09/27 00:40:40;;;;;;;1.60;1.50;;;10.80;99.90;;;;;;5050896;28;20387;-44
2022/09/27 00:43:21;;;;;;;1.77;1.30;;;10.80;99.90;;;;;;5049463;28;20032;-44
2022/09/27 00:45:54;;;;;;;2.03;1.20;;;10.80;99.90;;;;;;5051328;28;20074;-47
2022/09/27 00:48:26;;;;;;;1.33;1.20;;;10.80;99.90;;;;;;5041433;28;20025;-44
2022/09/27 00:50:54;;;;;;;2.65;1.42;;;10.80;99.90;;;;;;5051170;28;20033;-44
2022/09/27 00:53:29;;;;;;;2.03;1.40;;;10.90;99.90;;;;;;5050364;28;20025;-45
2022/09/27 00:56:01;;;;;;;1.60;1.40;;;10.80;99.90;;;;;;5051074;28;20025;-45
2022/09/27 00:58:34;;;;;;;2.78;1.23;;;10.80;99.90;;;;;;5051041;28;20036;-46
2022/09/27 01:01:04;;;;;;;3.88;1.23;;;10.90;99.90;;;;;;5049781;28;20045;-46
2022/09/27 01:03:43;;;;;;;2.08;1.48;;;10.90;99.90;;;;;;5050860;28;20466;-44
2022/09/27 01:06:10;;;;;;;9.25;1.90;;;10.90;99.90;;;;;;5049558;28;20037;-45
2022/09/27 01:08:35;;;;;;;2.97;2.05;;;10.90;99.90;;;;;;5038806;28;20035;-45
2022/09/27 01:11:14;;;;;;;2.42;1.90;;;10.80;99.90;;;;;;5047500;28;20178;-45
2022/09/27 01:13:48;;;;;;;4.82;2.10;;;10.80;99.90;;;;;;5050517;28;20051;-44
2022/09/27 01:16:28;;;;;;;3.33;1.88;;;10.80;99.90;;;;;;5050626;28;20029;-45
2022/09/27 01:19:20;;;;;;;4.00;2.22;;;10.80;99.90;;;;;;5050393;28;20422;-45
2022/09/27 01:22:15;;;;;;;3.50;2.17;;;10.70;99.90;;;;;;5050171;28;20033;-44
2022/09/27 01:25:22;;;;;;;10.20;2.13;;;10.70;99.90;;;;;;5049979;28;20024;-44
2022/09/27 01:28:30;;;;;;;2.22;2.03;;;10.70;99.90;;;;;;5050486;28;20024;-45
2022/09/27 01:31:11;;;;;;;4.13;1.70;;;10.70;99.90;;;;;;5046527;28;20076;-45
2022/09/27 01:33:52;;;;;;;3.55;1.58;;;10.70;99.90;;;;;;5049968;28;20017;-45
2022/09/27 01:36:36;;;;;;;2.58;1.63;;;10.80;99.90;;;;;;5049373;28;20040;-46
2022/09/27 01:39:17;;;;;;;4.32;1.92;;;10.70;99.90;;;;;;5038891;28;20021;-44
2022/09/27 01:41:59;;;;;;;4.43;1.85;;;10.80;99.90;;;;;;5050265;28;20021;-45
2022/09/27 01:44:53;;;;;;;2.20;2.00;;;10.80;99.90;;;;;;5049674;28;20025;-48
2022/09/27 01:47:32;;;;;;;2.80;2.10;;;10.80;99.90;;;;;;5050675;28;20510;-44
2022/09/27 01:50:06;;;;;;;4.15;1.85;;;10.70;99.90;;;;;;5050160;28;20029;-46
2022/09/27 01:52:51;;;;;;;3.42;1.77;;;10.70;99.90;;;;;;5048743;28;20021;-45
2022/09/27 01:55:22;;;;;;;4.40;1.65;;;10.80;99.90;;;;;;5049022;28;20493;-45
2022/09/27 01:57:54;;;;;;;1.92;1.70;;;10.70;99.90;;;;;;5050249;28;20025;-46
2022/09/27 02:00:21;;;;;;;2.97;1.63;;;10.70;99.90;;;;;;5048643;28;20029;-45
2022/09/27 02:02:52;;;;;;;2.25;1.88;;;10.70;99.90;;;;;;5048566;28;20025;-49
2022/09/27 02:05:22;;;;;;;3.53;1.65;;;10.70;99.90;;;;;;5050360;28;20028;-47
2022/09/27 02:08:03;;;;;;;2.97;2.15;;;10.70;99.90;;;;;;5041761;28;20024;-48
2022/09/27 02:10:40;;;;;;;2.60;1.90;;;10.60;99.90;;;;;;5033357;28;20390;-46
2022/09/27 02:13:24;;;;;;;3.75;1.80;;;10.70;99.90;;;;;;5049331;28;20359;-45
2022/09/27 02:16:13;;;;;;;2.22;1.83;;;10.70;99.90;;;;;;5031815;28;20022;-45
2022/09/27 02:19:08;;;;;;;3.08;1.42;;;10.70;99.90;;;;;;5020158;28;20025;-46
2022/09/27 02:21:57;;;;;;;2.75;1.67;;;10.70;99.90;;;;;;5018562;28;20060;-47
2022/09/27 02:24:35;;;;;;;2.28;1.55;;;10.70;99.90;;;;;;5017505;28;20041;-45
2022/09/27 02:27:09;;;;;;;2.83;1.80;;;10.70;99.90;;;;;;5019193;28;20022;-46
2022/09/27 02:29:42;;;;;;;1.65;1.48;;;10.70;99.90;;;;;;5018139;28;20076;-45
2022/09/27 02:32:08;;;;;;;1.88;1.77;;;10.70;99.90;;;;;;5019321;28;20036;-45
2022/09/27 02:34:37;;;;;;;2.47;1.80;;;10.70;99.90;;;;;;5018037;28;20025;-45
2022/09/27 02:37:02;;;;;;;3.67;2.00;;;10.70;99.90;;;;;;5021833;28;20026;-45
2022/09/27 02:39:28;;;;;;;1.83;1.60;;;10.70;99.90;;;;;;5024713;28;20029;-44
2022/09/27 02:41:57;;;;;;;1.65;1.50;;;10.70;99.90;;;;;;5018003;28;20025;-44
2022/09/27 02:44:24;;;;;;;3.90;1.70;;;10.70;99.90;;;;;;5018398;28;20018;-45
2022/09/27 02:47:19;;;;;;;1.63;1.48;;;10.70;99.90;;;;;;5020236;28;20116;-44
2022/09/27 02:49:52;;;;;;;3.13;1.50;;;10.70;99.90;;;;;;5013426;28;20034;-45
2022/09/27 02:52:31;;;;;;;1.65;1.40;;;10.60;99.90;;;;;;5017613;28;20021;-43
2022/09/27 02:55:13;;;;;;;4.10;1.50;;;10.70;99.90;;;;;;5020055;28;20030;-44
2022/09/27 02:58:03;;;;;;;3.35;1.73;;;10.60;99.90;;;;;;5020061;28;20599;-46
2022/09/27 03:00:54;;;;;;;1.98;1.80;;;10.60;99.90;;;;;;5017822;28;20029;-45
2022/09/27 03:03:29;;;;;;;2.75;2.03;;;10.50;99.90;;;;;;5017917;28;20036;-45
2022/09/27 03:06:04;;;;;;;3.53;1.85;;;10.50;99.90;;;;;;5022063;28;20040;-46
2022/09/27 03:08:29;;;;;;;3.72;2.00;;;10.40;99.90;;;;;;5026987;28;20053;-45
2022/09/27 03:10:55;;;;;;;3.78;2.50;;;10.40;99.90;;;;;;5023904;28;20134;-45
2022/09/27 03:13:20;;;;;;;4.47;1.90;;;10.40;99.90;;;;;;5021559;28;20366;-47
2022/09/27 03:15:46;;;;;;;2.65;1.75;;;10.40;99.90;;;;;;5022524;28;20025;-46
2022/09/27 03:18:12;;;;;;;1.75;1.58;;;10.30;99.90;;;;;;5013367;28;20480;-45
2022/09/27 03:20:37;;;;;;;4.82;2.13;;;10.30;99.90;;;;;;5013422;28;20037;-45
2022/09/27 03:23:03;;;;;;;3.60;1.98;;;10.20;99.90;;;;;;5012717;28;20507;-46
2022/09/27 03:25:29;;;;;;;3.20;1.90;;;10.30;99.90;;;;;;5012045;28;20029;-46
2022/09/27 03:27:54;;;;;;;3.03;2.25;;;10.20;99.90;;;;;;5011961;28;20057;-44
2022/09/27 03:30:20;;;;;;;5.40;2.50;;;10.30;99.90;;;;;;5013299;28;20041;-44
2022/09/27 03:32:46;;;;;;;2.53;1.90;;;10.20;99.90;;;;;;5012788;28;20268;-44
2022/09/27 03:35:12;;;;;;;4.47;2.17;;;10.30;99.90;;;;;;5013463;28;20085;-47
2022/09/27 03:37:38;;;;;;;10.18;2.70;;;10.30;99.90;;;;;;5029030;28;20541;-44
2022/09/27 03:40:05;;;;;;;3.45;2.67;;;10.20;99.90;;;;;;5044419;28;20494;-46
2022/09/27 03:42:30;;;;;;;5.90;3.72;;;10.30;99.90;;;;;;5051804;28;20025;-44
2022/09/27 03:44:56;;;;;;;7.72;3.70;;;10.20;99.90;;;;;;5052403;28;20021;-46
2022/09/27 03:47:22;;;;;;;3.40;3.05;;;10.20;99.90;;;;;;5052352;28;20086;-45
2022/09/27 03:49:47;;;;;;;4.70;3.60;;;10.20;99.90;;;;;;5039593;28;20028;-44
2022/09/27 03:52:14;;;;;;;6.07;3.20;;;10.20;99.90;;;;;;5012342;28;20054;-45
2022/09/27 03:54:39;;;;;;;5.38;3.50;;;10.20;99.90;;;;;;5012260;28;20057;-47
2022/09/27 03:57:05;;;;;;;5.45;3.03;;;10.20;99.90;;;;;;5035839;28;20105;-46
2022/09/27 03:59:30;;;;;;;5.30;3.45;;;10.20;99.90;;;;;;5031045;28;20030;-45
2022/09/27 04:01:59;;;;;;;7.03;3.67;;;10.20;99.90;;;;;;5030810;28;20036;-46
2022/09/27 04:04:24;;;;;;;5.18;3.40;;;10.20;99.90;;;;;;5030955;28;20406;-47
2022/09/27 04:06:50;;;;;;;6.35;2.72;;;10.20;99.90;;;;;;5030866;28;20014;-45
2022/09/27 04:09:16;;;;;;;3.05;2.60;;;10.20;99.90;;;;;;5042267;28;20329;-46
2022/09/27 04:11:41;;;;;;;5.80;3.35;;;10.20;99.90;;;;;;5052243;28;20352;-45
2022/09/27 04:14:07;;;;;;;4.28;3.13;;;10.20;99.90;;;;;;5049264;28;20029;-45
2022/09/27 04:16:34;;;;;;;3.63;2.95;;;10.20;99.90;;;;;;5051760;28;20050;-46
2022/09/27 04:19:00;;;;;;;4.72;2.13;;;10.20;99.90;;;;;;5051637;28;20425;-49
2022/09/27 04:21:28;;;;;;;3.90;2.58;;;10.30;99.90;;;;;;5051508;28;20040;-45
2022/09/27 04:23:53;;;;;;;5.20;2.65;;;10.30;99.90;;;;;;5047749;28;20071;-46
2022/09/27 04:26:19;;;;;;;5.22;2.42;;;10.30;99.90;;;;;;5041726;28;20110;-45
2022/09/27 04:28:45;;;;;;;3.47;3.03;;;10.30;99.90;;;;;;5051532;28;20024;-47
2022/09/27 04:31:11;;;;;;;4.40;2.95;;;10.30;99.90;;;;;;5051431;28;20482;-46
2022/09/27 04:33:37;;;;;;;3.15;2.63;;;10.30;99.90;;;;;;5050860;28;20021;-48
2022/09/27 04:38:47;;;;;;;5.03;2.50;;;10.30;99.90;;;;;;5051054;28;20035;-46
2022/09/27 04:41:14;;;;;;;3.08;2.47;;;10.30;99.90;;;;;;5051514;28;20029;-46
2022/09/27 04:43:39;;;;;;;2.38;2.15;;;10.30;99.90;;;;;;5050745;28;20100;-46
2022/09/27 04:46:05;;;;;;;2.97;2.72;;;10.30;99.90;;;;;;5050900;28;20133;-45
2022/09/27 04:48:31;;;;;;;4.05;2.47;;;10.30;99.90;;;;;;5049641;28;20032;-46
2022/09/27 04:51:01;;;;;;;7.38;2.80;;;10.30;99.90;;;;;;5050988;28;20461;-45
2022/09/27 04:53:30;;;;;;;4.78;2.30;;;10.30;99.90;;;;;;5049523;28;20021;-47
2022/09/27 04:55:56;;;;;;;4.90;2.90;;;10.30;99.90;;;;;;5037791;28;20575;-45
2022/09/27 04:58:23;;;;;;;7.22;3.20;;;10.30;99.90;;;;;;5019083;28;20021;-46
2022/09/27 05:00:53;;;;;;;5.00;2.75;;;10.30;99.90;;;;;;5020238;28;20447;-46
2022/09/27 05:03:19;;;;;;;4.60;3.20;;;10.30;99.90;;;;;;5014268;28;20092;-46
2022/09/27 05:05:44;;;;;;;6.18;3.28;;;10.30;99.90;;;;;;5014562;28;20034;-46
2022/09/27 05:08:10;;;;;;;5.70;3.03;;;10.30;99.90;;;;;;5032784;28;20367;-45
2022/09/27 05:10:36;;;;;;;6.68;3.30;;;10.30;99.90;;;;;;5024527;28;20033;-45
2022/09/27 05:13:02;;;;;;;4.88;3.10;;;10.30;99.90;;;;;;5027147;28;20018;-46
2022/09/27 05:15:27;;;;;;;7.20;3.05;;;10.30;99.90;;;;;;5018275;28;20030;-46
2022/09/27 05:17:53;;;;;;;6.22;3.30;;;10.40;99.90;;;;;;5014258;28;20026;-46
2022/09/27 05:20:19;;;;;;;10.50;4.57;;;10.40;99.90;;;;;;5019866;28;20392;-45
2022/09/27 05:22:45;;;;;;;7.60;3.67;;;10.40;99.90;;;;;;5023877;28;20018;-46
2022/09/27 05:25:13;;;;;;;6.68;4.43;;;10.40;99.90;;;;;;5023959;28;20029;-45
2022/09/27 05:27:38;;;;;;;9.88;4.43;;;10.40;99.90;;;;;;5031754;28;20084;-45
2022/09/27 05:30:06;;;;;;;5.50;3.90;;;10.50;99.90;;;;;;5035675;28;20494;-46
2022/09/27 05:32:33;;;;;;;11.13;4.82;;;10.50;99.90;;;;;;5005896;28;20034;-46
2022/09/27 05:34:59;;;;;;;9.43;4.80;;;10.50;99.90;;;;;;5026885;28;20112;-46
2022/09/27 05:37:24;;;;;;;14.70;5.97;;;10.50;99.90;;;;;;5030095;28;20384;-45
2022/09/27 05:39:50;;;;;;;8.35;5.00;;;10.50;99.90;;;;;;5027264;28;20067;-47
2022/09/27 05:42:16;;;;;;;6.53;5.20;;;10.50;99.90;;;;;;5041860;28;20103;-45
2022/09/27 05:44:45;;;;;;;11.00;4.68;;;10.40;99.90;;;;;;5049633;28;20123;-46
2022/09/27 05:47:11;;;;;;;11.02;5.07;;;10.50;99.90;;;;;;5048734;28;20108;-45
2022/09/27 05:49:39;;;;;;;12.43;5.63;;;10.50;99.90;;;;;;5040997;28;20025;-45
2022/09/27 05:52:05;;;;;;;8.55;4.57;;;10.50;99.90;;;;;;5030880;28;20055;-45
2022/09/27 05:54:30;;;;;;;9.48;4.53;;;10.60;99.90;;;;;;5026650;28;20495;-45
2022/09/27 05:56:59;;;;;;;8.32;4.93;;;10.50;99.90;;;;;;5032776;28;20047;-47
2022/09/27 05:59:26;;;;;;;9.60;6.00;;;10.60;99.90;;;;;;5008730;28;20034;-47
2022/09/27 06:01:52;;;;;;;9.75;6.00;;;10.60;99.90;;;;;;5010107;28;20053;-45
2022/09/27 06:04:18;;;;;;;9.52;6.30;;;10.60;99.90;;;;;;5028027;28;20059;-45
2022/09/27 06:06:43;;;;;;;10.85;6.57;;;10.60;99.90;;;;;;5042406;28;20032;-45
2022/09/27 06:09:10;;;;;;;13.27;7.25;;;10.60;99.90;;;;;;5031611;28;20025;-46
2022/09/27 06:11:36;;;;;;;9.48;7.65;;;10.60;99.90;;;;;;5029732;28;20100;-46
2022/09/27 06:14:02;;;;;;;11.75;7.25;;;10.70;99.90;;;;;;5028577;28;20595;-46
2022/09/27 06:16:27;;;;;;;10.45;7.05;;;10.60;99.90;;;;;;5029861;28;20486;-46
2022/09/27 06:18:53;;;;;;;10.40;7.57;;;10.60;99.90;;;;;;5041917;28;20044;-46
2022/09/27 06:21:19;;;;;;;11.13;6.50;;;10.70;99.90;;;;;;5040658;28;20040;-46
2022/09/27 06:23:44;;;;;;;10.32;5.47;;;10.60;99.90;;;;;;5037579;28;20477;-46
2022/09/27 06:26:11;;;;;;;10.13;5.80;;;10.60;99.90;;;;;;5034366;28;20021;-46
2022/09/27 06:28:36;;;;;;;9.93;6.40;;;10.60;99.90;;;;;;5041481;28;20120;-45
2022/09/27 06:31:05;;;;;;;9.93;7.30;;;10.50;99.90;;;;;;5034866;28;20104;-45
2022/09/27 06:33:32;;;;;;;9.93;7.10;;;10.60;99.90;;;;;;5037976;28;20086;-46
2022/09/27 06:36:03;;;;;;;10.73;6.85;;;10.60;99.90;;;;;;5033058;28;20021;-47
2022/09/27 06:38:28;;;;;;;12.45;8.05;;;10.60;99.90;;;;;;5034962;28;20032;-46
2022/09/27 06:40:57;;;;;;;11.23;7.55;;;10.60;99.90;;;;;;5049040;28;20033;-46
2022/09/27 06:43:22;;;;;;;9.75;6.75;;;10.60;99.90;;;;;;5034482;28;20013;-46
2022/09/27 06:45:49;;;;;;;10.85;6.75;;;10.60;99.90;;;;;;5047562;28;20025;-47
2022/09/27 06:48:16;;;;;;;9.68;6.45;;;10.60;99.90;;;;;;5053676;28;20029;-46
2022/09/27 06:50:45;;;;;;;11.93;7.20;;;10.60;99.90;;;;;;5039239;28;20418;-47
2022/09/27 06:53:13;;;;;;;12.93;7.25;;;10.70;99.90;;;;;;5043876;28;20094;-46
2022/09/27 06:55:39;;;;;;;11.63;7.22;;;10.60;99.90;;;;;;5033507;28;20044;-49
2022/09/27 07:00:53;;;;;;;12.27;6.72;;;10.50;99.90;;;;;;5052845;28;20508;-46
2022/09/27 07:03:21;;;;;;;9.88;6.68;;;10.60;99.90;;;;;;5051047;28;20017;-45
2022/09/27 07:05:58;;;;;;;13.27;6.57;;;10.50;99.90;;;;;;5039235;28;20013;-45
2022/09/27 07:08:26;;;;;;;10.45;6.88;;;10.40;99.90;;;;;;5044036;28;20067;-46
2022/09/27 07:10:52;;;;;;;11.05;6.43;;;10.40;99.90;;;;;;5051627;28;20376;-46
2022/09/27 07:13:17;;;;;;;9.45;6.43;;;10.40;99.90;;;;;;5047977;28;20029;-45
2022/09/27 07:15:43;;;;;;;11.90;6.57;;;10.30;99.90;;;;;;5015620;28;20033;-46
2022/09/27 07:18:09;;;;;;;12.05;6.78;;;10.40;99.90;;;;;;5030058;28;20599;-45
2022/09/27 07:20:38;;;;;;;13.73;7.22;;;10.40;99.90;;;;;;5045702;28;20036;-47
2022/09/27 07:23:05;;;;;;;11.25;6.53;;;10.40;99.90;;;;;;5050626;28;20020;-47
2022/09/27 07:25:31;;;;;;;11.90;7.05;;;10.40;99.90;;;;;;5042982;28;20637;-48
2022/09/27 07:28:05;;;;;;;11.13;6.82;;;10.50;99.90;;;;;;5043952;28;20017;-45
2022/09/27 07:30:31;;;;;;;13.85;6.72;;;10.40;99.90;;;;;;5034036;28;20018;-46
2022/09/27 07:33:02;;;;;;;12.63;7.00;;;10.40;99.90;;;;;;5048399;28;20032;-46
2022/09/27 07:35:28;;;;;;;14.90;8.13;;;10.40;99.90;;;;;;5050188;28;20075;-46
2022/09/27 07:37:55;;;;;;;12.98;7.28;;;10.40;99.90;;;;;;5040521;28;20033;-45
2022/09/27 07:40:21;;;;;;;11.77;7.18;;;10.40;99.90;;;;;;5042355;28;20022;-48
2022/09/27 07:42:47;;;;;;;11.70;7.03;;;10.40;99.90;;;;;;5046436;28;20029;-46
2022/09/27 07:45:12;;;;;;;13.50;7.70;;;10.40;99.90;;;;;;5044165;28;20105;-47
2022/09/27 07:47:39;;;;;;;12.05;7.28;;;10.40;99.90;;;;;;5038335;28;20508;-46
2022/09/27 07:50:06;;;;;;;14.23;8.85;;;10.40;99.90;;;;;;5029103;28;20017;-48
2022/09/27 07:52:41;;;;;;;14.50;9.88;;;10.40;99.90;;;;;;5032742;28;20076;-46
2022/09/27 07:55:08;;;;;;;18.90;9.88;;;10.40;99.90;;;;;;5033588;28;20116;-46
2022/09/27 07:57:34;;;;;;;15.25;9.43;;;10.40;99.90;;;;;;5043640;28;20021;-46
2022/09/27 07:59:59;;;;;;;21.15;10.60;;;10.40;99.90;;;;;;5042815;28;20029;-46
2022/09/27 08:02:25;;;;;;;21.63;11.40;;;10.50;99.90;;;;;;5043059;28;20120;-47
2022/09/27 08:04:51;;;;;;;17.95;11.10;;;10.50;99.90;;;;;;5051883;28;20555;-46
2022/09/27 08:07:17;;;;;;;20.27;10.27;;;10.50;99.90;;;;;;5040378;28;20091;-46
2022/09/27 08:09:42;;;;;;;20.75;10.70;;;10.50;99.90;;;;;;5033949;28;20021;-46
2022/09/27 08:12:09;;;;;;;19.00;10.73;;;10.60;99.90;;;;;;5047881;28;20093;-46
2022/09/27 08:14:34;;;;;;;17.15;10.20;;;10.60;99.90;;;;;;5031703;28;20445;-49
2022/09/27 08:17:00;;;;;;;19.73;11.52;;;10.60;99.90;;;;;;5048073;28;20412;-46
2022/09/27 08:19:25;;;;;;;20.33;10.45;;;10.70;99.90;;;;;;5047316;28;20398;-47
2022/09/27 08:21:53;;;;;;;16.05;9.98;;;10.60;99.90;;;;;;5039523;28;20525;-46
2022/09/27 08:24:19;;;;;;;16.23;9.13;;;10.60;99.90;;;;;;5042257;28;20559;-46
2022/09/27 08:26:45;;;;;;;17.83;10.40;;;10.60;99.90;;;;;;5035451;28;20026;-49
2022/09/27 08:29:11;;;;;;;18.73;9.38;;;10.60;99.90;;;;;;5041246;28;20072;-48
2022/09/27 08:31:37;;;;;;;16.45;8.23;;;10.70;99.90;;;;;;5030926;28;20030;-45
2022/09/27 08:34:03;;;;;;;16.88;8.10;;;10.70;99.90;;;;;;5026374;28;20388;-46
2022/09/27 08:36:30;;;;;;;13.18;6.38;;;10.70;99.90;;;;;;5042701;28;20060;-47
2022/09/27 08:38:58;;;;;;;9.73;6.15;;;10.90;99.90;;;;;;5040387;28;20044;-46
2022/09/27 08:41:45;;;;;;;12.73;5.30;;;10.80;99.90;;;;;;5050723;28;20498;-46
2022/09/27 08:44:21;;;;;;;10.80;4.63;;;10.90;99.90;;;;;;5049574;28;20036;-46
2022/09/27 08:47:02;;;;;;;8.70;4.38;;;10.90;99.90;;;;;;5032362;28;20017;-46
2022/09/27 08:49:37;;;;;;;12.30;4.65;;;10.90;99.90;;;;;;5023586;28;20017;-46
2022/09/27 08:52:06;;;;;;;8.98;4.88;;;10.80;99.90;;;;;;5042800;28;20032;-45
2022/09/27 08:54:34;;;;;;;15.65;5.22;;;10.80;99.90;;;;;;5042000;28;20025;-47
2022/09/27 08:57:04;;;;;;;11.10;6.50;;;10.80;99.90;;;;;;5034504;28;20025;-48
2022/09/27 08:59:42;;;;;;;6.03;4.30;;;10.70;99.90;;;;;;5050335;28;20035;-46
2022/09/27 09:02:19;;;;;;;8.32;4.60;;;10.70;99.90;;;;;;5041990;28;20283;-46
2022/09/27 09:04:49;;;;;;;7.10;4.10;;;10.70;99.90;;;;;;5037987;28;20021;-46
2022/09/27 09:07:23;;;;;;;9.70;4.57;;;10.70;99.90;;;;;;5026055;28;20480;-45
2022/09/27 09:13:39;;;;;;;5.13;3.67;;;10.60;99.90;;;;;;5011473;28;20068;-49
2022/09/27 09:16:27;;;;;;;9.88;4.35;;;10.70;99.90;;;;;;5010840;28;20029;-47
2022/09/27 09:19:15;;;;;;;15.02;4.70;;;10.80;99.90;;;;;;5038167;28;20036;-46
2022/09/27 09:22:07;;;;;;;11.07;4.72;;;10.80;99.90;;;;;;5032500;28;20025;-50
2022/09/27 09:24:51;;;;;;;13.90;5.25;;;10.80;99.90;;;;;;5030008;28;20103;-47
2022/09/27 09:27:25;;;;;;;9.20;5.65;;;10.70;99.90;;;;;;5030351;28;20360;-46
2022/09/27 09:30:00;;;;;;;10.82;5.47;;;10.80;99.90;;;;;;5030562;28;20025;-46
2022/09/27 09:32:49;;;;;;;9.82;6.00;;;10.80;99.90;;;;;;5030233;28;20025;-46
2022/09/27 09:35:22;;;;;;;14.27;6.70;;;10.80;99.90;;;;;;5048656;28;20061;-46
2022/09/27 09:37:54;;;;;;;9.43;5.65;;;10.80;99.90;;;;;;5049368;28;20118;-48
2022/09/27 09:40:25;;;;;;;10.77;5.75;;;10.80;99.90;;;;;;5050246;28;20209;-46
2022/09/27 09:43:01;;;;;;;12.52;7.15;;;10.80;99.90;;;;;;5049363;28;20032;-49
2022/09/27 09:45:35;;;;;;;17.80;8.63;;;10.70;99.90;;;;;;5023913;28;20478;-47
2022/09/27 09:48:26;;;;;;;18.58;10.57;;;10.70;99.90;;;;;;5042234;28;20082;-48
2022/09/27 09:50:55;;;;;;;24.83;10.65;;;10.60;99.90;;;;;;5049323;28;20363;-47
2022/09/27 09:53:28;;;;;;;17.75;10.93;;;10.60;99.90;;;;;;5040370;28;20013;-47
2022/09/27 09:56:20;;;;;;;18.83;9.60;;;10.50;99.90;;;;;;5042378;28;20021;-46
2022/09/27 09:59:01;;;;;;;17.77;10.80;;;10.50;99.90;;;;;;5050439;28;20123;-47
2022/09/27 10:01:33;;;;;;;19.65;12.00;;;10.40;99.90;;;;;;5032235;28;20348;-49
2022/09/27 10:03:59;;;;;;;19.13;10.88;;;10.40;99.90;;;;;;5016000;28;20083;-47
2022/09/27 10:06:27;;;;;;;22.77;11.77;;;10.30;99.90;;;;;;5030963;28;20518;-46
2022/09/27 10:08:54;;;;;;;17.90;10.98;;;10.40;99.90;;;;;;5038313;28;20021;-47
2022/09/27 10:11:38;;;;;;;18.85;11.05;;;10.40;99.90;;;;;;5049797;28;20066;-49
2022/09/27 10:14:10;;;;;;;19.35;10.98;;;10.40;99.90;;;;;;5050178;28;20032;-46
2022/09/27 10:16:36;;;;;;;16.85;10.90;;;10.50;99.90;;;;;;5043690;28;20022;-48
2022/09/27 10:19:04;;;;;;;14.90;10.55;;;10.60;99.90;;;;;;5035777;28;20124;-47
2022/09/27 10:21:30;;;;;;;12.40;8.80;;;10.70;99.90;;;;;;5027543;28;20036;-49
2022/09/27 10:24:12;;;;;;;19.73;9.20;;;10.90;99.90;;;;;;5016090;28;20048;-46
2022/09/27 10:26:39;;;;;;;15.50;9.70;;;11.10;99.90;;;;;;5020915;28;20602;-49
2022/09/27 10:29:18;;;;;;;15.65;9.55;;;11.00;99.90;;;;;;5017468;28;20417;-49
2022/09/27 10:31:47;;;;;;;14.40;8.70;;;11.00;99.90;;;;;;5041122;28;20031;-49
2022/09/27 10:34:34;;;;;;;20.33;10.18;;;11.00;99.90;;;;;;5049552;28;20033;-46
2022/09/27 10:37:20;;;;;;;15.85;9.63;;;11.10;99.90;;;;;;5037303;28;20110;-47
2022/09/27 10:39:47;;;;;;;13.48;7.93;;;11.10;99.90;;;;;;5040894;28;20113;-47
2022/09/27 10:42:33;;;;;;;16.05;8.00;;;11.10;99.90;;;;;;5038493;28;20025;-46
2022/09/27 10:45:28;;;;;;;14.07;8.10;;;11.10;99.90;;;;;;5033714;28;20045;-47
2022/09/27 10:47:55;;;;;;;14.48;8.85;;;11.00;99.90;;;;;;5011546;28;20140;-46
2022/09/27 10:50:27;;;;;;;18.05;8.63;;;11.10;99.90;;;;;;5021717;28;20043;-47
2022/09/27 10:53:10;;;;;;;15.27;8.65;;;11.20;99.90;;;;;;5016731;28;20364;-46
2022/09/27 10:55:36;;;;;;;18.70;9.70;;;11.10;99.90;;;;;;5023890;28;20025;-46
2022/09/27 10:58:03;;;;;;;17.58;9.65;;;11.10;99.90;;;;;;5015680;28;20394;-48
2022/09/27 11:00:31;;;;;;;17.48;10.05;;;11.20;99.90;;;;;;5016591;28;20029;-49
2022/09/27 11:03:14;;;;;;;15.23;10.23;;;12.00;99.90;;;;;;5021277;28;20014;-47
2022/09/27 11:05:40;;;;;;;11.20;7.80;;;13.10;99.90;;;;;;5020554;28;20089;-49
2022/09/27 11:08:24;;;;;;;12.25;5.53;;;13.60;99.90;;;;;;5023034;28;20037;-46
2022/09/27 11:11:00;;;;;;;11.02;5.80;;;13.40;99.90;;;;;;5019410;28;20044;-46
2022/09/27 11:13:31;;;;;;;8.13;5.28;;;12.90;99.90;;;;;;5018156;28;20021;-47
2022/09/27 11:16:29;;;;;;;6.07;5.20;;;12.50;99.90;;;;;;5020675;28;20108;-50
2022/09/27 11:19:17;;;;;;;8.27;4.95;;;12.00;99.90;;;;;;5012579;28;20053;-47
2022/09/27 11:21:51;;;;;;;9.85;4.85;;;12.00;99.90;;;;;;5017560;28;20029;-50
2022/09/27 11:24:35;;;;;;;5.70;4.50;;;12.30;99.90;;;;;;5021428;28;20066;-46
2022/09/27 11:27:16;;;;;;;9.10;4.55;;;12.30;99.90;;;;;;5020518;28;20436;-47
2022/09/27 11:30:03;;;;;;;6.95;4.38;;;13.20;99.90;;;;;;5025221;28;20033;-48
2022/09/27 11:32:55;;;;;;;6.90;4.25;;;13.80;99.90;;;;;;5022205;28;20032;-47
2022/09/27 11:35:46;;;;;;;4.88;3.25;;;14.80;99.90;;;;;;5024370;28;20459;-47
2022/09/27 11:38:19;;;;;;;4.70;2.78;;;15.10;99.90;;;;;;5024023;28;20163;-48
2022/09/27 11:41:10;;;;;;;8.05;3.20;;;15.00;99.90;;;;;;5034076;28;20096;-49
2022/09/27 11:44:10;;;;;;;6.43;2.60;;;15.50;99.90;;;;;;5052911;28;20020;-47
2022/09/27 11:46:36;;;;;;;6.40;2.42;;;15.80;99.90;;;;;;5016228;28;20033;-50
2022/09/27 11:49:39;;;;;;;3.50;2.20;;;16.50;99.90;;;;;;5032382;28;20041;-49
2022/09/27 11:52:23;;;;;;;2.47;2.10;;;16.90;99.90;;;;;;5032547;28;20021;-50
2022/09/27 11:54:54;;;;;;;6.20;2.40;;;17.00;99.90;;;;;;5031888;28;20479;-47
2022/09/27 11:57:30;;;;;;;3.05;1.80;;;18.00;99.90;;;;;;5032195;28;20026;-48
2022/09/27 12:00:08;;;;;;;3.85;1.40;;;18.60;99.90;;;;;;5032402;28;20033;-46
2022/09/27 12:02:59;;;;;;;1.40;1.02;;;17.30;99.90;;;;;;5030036;28;20435;-46
2022/09/27 12:05:32;;;;;;;5.82;1.15;;;16.30;99.90;;;;;;5031948;28;20029;-45
2022/09/27 12:08:16;;;;;;;3.38;1.38;;;15.40;99.90;;;;;;5032049;28;20026;-47
2022/09/27 12:10:47;;;;;;;1.80;1.52;;;15.00;99.90;;;;;;5031898;28;20025;-48
2022/09/27 12:13:15;;;;;;;4.57;2.25;;;14.50;99.90;;;;;;5031209;28;20017;-45
2022/09/27 12:15:43;;;;;;;4.03;2.00;;;14.20;99.90;;;;;;5031823;28;20519;-48
2022/09/27 12:18:13;;;;;;;5.50;2.60;;;13.80;99.90;;;;;;5030448;28;20033;-45
2022/09/27 12:20:41;;;;;;;4.32;2.70;;;13.50;99.90;;;;;;5031297;28;20245;-45
2022/09/27 12:23:28;;;;;;;8.40;3.17;;;13.40;99.90;;;;;;5029997;28;20041;-47
2022/09/27 12:25:59;;;;;;;3.08;2.55;;;13.80;99.90;;;;;;5031342;28;20025;-47
2022/09/27 12:28:38;;;;;;;;;;;14.40;99.90;;;;;;5031444;28;20025;-46
2022/09/27 12:31:18;;;;;;;6.93;2.70;;;15.10;99.90;;;;;;5031656;28;20289;-49
2022/09/27 12:34:13;;;;;;;9.32;2.83;;;15.00;99.90;;;;;;5031310;28;20056;-46
2022/09/27 12:36:46;;;;;;;3.97;1.80;;;15.20;99.90;;;;;;5030422;28;20026;-47
2022/09/27 12:39:27;;;;;;;3.50;1.90;;;15.10;99.90;;;;;;5031173;28;20026;-46
2022/09/27 12:42:00;;;;;;;;;;;15.40;99.90;;;;;;5031933;28;20030;-45
2022/09/27 12:44:27;;;;;;;1.75;1.33;;;15.30;99.90;;;;;;5031049;28;19905;-45
2022/09/27 12:46:58;;;;;;;1.52;1.10;;;15.10;99.90;;;;;;5030739;28;20028;-46
2022/09/27 12:49:55;;;;;;;2.72;1.15;;;14.90;99.90;;;;;;5030140;28;20022;-47
2022/09/27 12:52:24;;;;;;;3.13;1.15;;;15.00;99.90;;;;;;5013922;28;20521;-46
2022/09/27 12:54:59;;;;;;;5.47;1.65;;;15.20;99.90;;;;;;5019187;28;20025;-46
2022/09/27 12:57:30;;;;;;;2.65;1.33;;;15.50;99.90;;;;;;5026511;28;20098;-47
2022/09/27 13:00:01;;;;;;;1.40;1.10;;;15.90;99.90;;;;;;5030191;28;20032;-46
2022/09/27 13:02:53;;;;;;;4.13;1.42;;;16.50;99.90;;;;;;5030209;28;20040;-46
2022/09/27 13:05:41;;;;;;;3.53;1.27;;;16.70;99.90;;;;;;5023568;28;20109;-47
2022/09/27 13:08:27;;;;;;;1.98;0.85;;;16.10;99.90;;;;;;5011263;28;20026;-46
2022/09/27 13:10:59;;;;;;;2.72;1.30;;;15.10;99.90;;;;;;5013582;28;20091;-46
2022/09/27 13:13:28;;;;;;;2.20;1.15;;;14.70;99.90;;;;;;5030212;28;20017;-46
2022/09/27 13:15:57;;;;;;;6.50;1.35;;;14.20;99.90;;;;;;5030806;28;20415;-48
2022/09/27 13:19:02;;;;;;;4.63;1.05;;;13.80;99.90;;;;;;5030715;28;20104;-45